Latest Weather Observations for Mount Moornapa

IDV60801

Issued at 6:32 pm EST Saturday 25 April 2015 (issued every 30 minutes, with the page automatically refreshed every 10 minutes)

About weather observations | Map of weather stations | Latest weather observations for VIC | Other Formats
Station Details ID: 085296 Name: MOUNT MOORNAPA Lat: -37.75 Lon: 147.14 Height: 480.0 m
Data from the previous 72 hours. | See also: Recent months at Mount Moornapa
Date/Time
EST
Temp
°C
App
Temp
°C
Dew
Point
Rel
Hum
%
Delta-T
°C
Wind Press
QNH
hPa
Press
MSL
hPa
Rain
since 9 am
mm
Dir
 
Spd
km/h
Gust
km/h
Spd
kts
Gust
kts
25/06:30pm 10.6 9.6 10.4 99 0.1 WSW 6 11 3 6 - - 7.6
25/06:00pm 10.4 9.1 10.1 98 0.2 WSW 7 15 4 8 - - 7.6
25/05:30pm 10.4 8.9 9.2 92 0.6 WSW 7 13 4 7 - - 7.6
25/05:00pm 10.1 8.7 8.9 92 0.6 WSW 6 9 3 5 - - 7.6
25/04:30pm 10.5 9.7 9.6 94 0.5 SW 4 9 2 5 - - 7.6
25/04:00pm 11.2 10.7 10.6 96 0.3 SSW 4 7 2 4 - - 7.6
25/03:30pm 10.6 10.4 10.4 99 0.1 SSW 2 4 1 2 - - 7.6
25/03:00pm 10.5 9.9 10.3 99 0.1 WNW 4 6 2 3 - - 7.6
25/02:30pm 10.5 9.5 10.2 98 0.2 NNW 6 7 3 4 - - 7.6
25/02:00pm 11.6 12.0 11.1 97 0.3 CALM 0 0 0 0 - - 7.6
25/01:30pm 12.3 11.9 9.9 85 1.3 W 2 4 1 2 - - 7.6
25/01:00pm 9.8 8.7 9.8 100 0.0 NW 6 7 3 4 - - 7.6
25/12:30pm 9.0 6.7 9.0 100 0.0 N 11 15 6 8 - - 7.4
25/12:00pm 9.3 7.1 9.3 100 0.0 N 11 20 6 11 - - 6.2
25/11:30am 9.7 7.6 9.7 100 0.0 N 11 17 6 9 - - 4.8
25/11:00am 9.8 7.3 9.8 100 0.0 N 13 22 7 12 - - 3.6
25/10:30am 9.4 6.8 9.4 100 0.0 NNW 13 19 7 10 - - 3.4
25/10:00am 9.8 8.1 9.8 100 0.0 NNW 9 19 5 10 - - 2.2
25/09:30am 10.4 9.4 10.4 100 0.0 NW 6 7 3 4 - - 0.0
25/09:00am 10.4 9.4 10.4 100 0.0 WSW 6 9 3 5 - - 1.6
25/08:30am 10.9 10.8 10.9 100 0.0 SE 2 4 1 2 - - 1.6
25/08:00am 11.2 11.2 11.2 100 0.0 N 2 4 1 2 - - 1.6
25/07:30am 10.7 10.2 10.7 100 0.0 E 4 6 2 3 - - 1.6
25/07:00am 10.5 9.6 10.5 100 0.0 E 6 7 3 4 - - 1.6
25/06:30am 10.6 9.1 10.6 100 0.0 N 9 15 5 8 - - 1.6
25/06:00am 10.6 9.1 10.6 100 0.0 NNE 9 15 5 8 - - 1.6
25/05:30am 10.9 10.8 10.9 100 0.0 NE 2 7 1 4 - - 1.6
25/05:00am 11.0 10.6 11.0 100 0.0 ENE 4 7 2 4 - - 1.6
25/04:30am 11.0 10.9 10.8 99 0.1 ESE 2 7 1 4 - - 1.6
25/04:00am 11.6 11.3 11.4 99 0.1 SE 4 7 2 4 - - 1.6
25/03:30am 11.8 11.5 11.3 97 0.3 SE 4 6 2 3 - - 1.6
25/03:00am 12.1 11.3 9.5 84 1.4 S 4 6 2 3 - - 1.6
25/02:30am 13.2 12.2 8.9 75 2.2 NNW 4 6 2 3 - - 1.6
25/02:00am 12.6 11.4 9.6 82 1.6 NNE 6 7 3 4 - - 1.6
25/01:30am 12.7 11.3 9.5 81 1.7 NNW 7 11 4 6 - - 1.6
25/01:00am 12.6 11.3 9.8 83 1.5 NW 7 11 4 6 - - 1.6
25/12:30am 12.6 10.9 9.8 83 1.5 NNW 9 13 5 7 - - 1.6
25/12:00am 13.5 11.7 9.6 77 2.0 NNW 9 13 5 7 - - 1.6
 
Date/Time
EST
Temp
°C
App
Temp
°C
Dew
Point
Rel
Hum
%
Delta-T
°C
Wind Press
QNH
hPa
Press
MSL
hPa
Rain
since 9 am
mm
Dir
 
Spd
km/h
Gust
km/h
Spd
kts
Gust
kts
24/11:30pm 13.5 11.8 9.9 79 1.9 N 9 13 5 7 - - 1.6
24/11:00pm 13.2 12.7 10.9 86 1.2 NNW 4 7 2 4 - - 1.6
24/10:30pm 13.4 13.0 13.1 98 0.2 N 7 9 4 5 - - 1.6
24/10:00pm 13.9 14.8 12.8 93 0.6 CALM 0 0 0 0 - - 1.6
24/09:30pm 13.8 13.8 12.5 92 0.7 N 4 4 2 2 - - 1.6
24/09:00pm 13.7 14.6 12.8 94 0.5 CALM 0 0 0 0 - - 1.6
24/08:30pm 14.3 14.9 14.3 100 0.0 N 4 7 2 4 - - 1.6
24/08:00pm 14.5 15.5 14.3 99 0.1 N 2 6 1 3 - - 1.6
24/07:30pm 14.6 15.0 12.6 88 1.1 WNW 2 6 1 3 - - 1.6
24/07:00pm 14.6 15.4 12.5 87 1.2 CALM 0 0 0 0 - - 1.6
24/06:30pm 14.6 15.3 14.4 99 0.1 NNW 4 6 2 3 - - 1.6
24/06:00pm 14.0 14.8 13.8 99 0.1 S 2 4 1 2 - - 1.6
24/05:30pm 14.5 15.6 14.5 100 0.0 S 2 4 1 2 - - 1.6
24/05:00pm 14.9 15.7 14.9 100 0.0 SSW 4 9 2 5 - - 1.6
24/04:30pm 15.5 16.8 15.2 98 0.2 S 2 4 1 2 - - 1.6
24/04:00pm 16.0 17.3 15.2 95 0.5 S 2 4 1 2 - - 1.6
24/03:30pm 17.6 20.0 17.0 96 0.4 CALM 0 4 0 2 - - 1.6
24/03:00pm 16.5 18.4 15.7 95 0.5 CALM 0 0 0 0 - - 1.6
24/02:30pm 16.5 17.9 14.5 88 1.2 CALM 0 2 0 1 - - 1.6
24/02:00pm 16.3 17.9 15.0 92 0.8 CALM 0 0 0 0 - - 1.6
24/01:30pm 16.2 17.9 15.1 93 0.7 CALM 0 4 0 2 - - 1.6
24/01:00pm 16.3 17.9 15.0 92 0.8 CALM 0 4 0 2 - - 1.6
24/12:30pm 16.1 17.1 15.3 95 0.5 NNW 4 11 2 6 - - 1.6
24/12:00pm 15.5 15.5 15.2 98 0.2 N 9 13 5 7 - - 1.6
24/11:30am 14.4 14.5 14.4 100 0.0 N 7 11 4 6 - - 1.6
24/11:00am 14.3 13.9 14.0 98 0.2 N 9 13 5 7 - - 1.6
24/10:30am 13.4 13.3 13.4 100 0.0 NNE 6 7 3 4 - - 1.6
24/10:00am 13.7 13.7 13.7 100 0.0 N 6 7 3 4 - - 1.2
24/09:30am 13.5 13.5 13.5 100 0.0 NNE 6 13 3 7 - - 1.2
24/09:00am 13.1 12.4 13.1 100 0.0 N 9 11 5 6 - - 23.2
24/08:30am 12.9 12.5 12.9 100 0.0 N 7 9 4 5 - - 22.0
24/08:00am 12.8 12.3 12.8 100 0.0 N 7 7 4 4 - - 19.8
24/07:30am 12.7 12.2 12.7 100 0.0 NW 7 9 4 5 - - 18.6
24/07:00am 12.8 12.5 12.8 100 0.0 WNW 6 7 3 4 - - 17.8
24/06:30am 12.8 12.9 12.8 100 0.0 NW 4 4 2 2 - - 17.6
24/06:00am 12.8 12.9 12.8 100 0.0 NNW 4 6 2 3 - - 17.6
24/05:30am 12.7 12.4 12.7 100 0.0 NNW 6 7 3 4 - - 17.6
24/05:00am 12.7 12.8 12.7 100 0.0 NW 4 6 2 3 - - 17.6
24/04:30am 12.4 12.4 12.4 100 0.0 WNW 4 6 2 3 - - 17.6
24/04:00am 12.4 11.8 12.4 100 0.0 NNW 7 9 4 5 - - 17.6
24/03:30am 12.7 12.2 12.7 100 0.0 N 7 9 4 5 - - 17.6
24/03:00am 12.8 12.5 12.8 100 0.0 NNW 6 9 3 5 - - 17.6
24/02:30am 12.9 12.5 12.9 100 0.0 N 7 9 4 5 - - 17.6
24/02:00am 13.0 13.6 13.0 100 0.0 WSW 2 4 1 2 - - 17.6
24/01:30am 13.1 13.7 13.1 100 0.0 WSW 2 4 1 2 - - 17.6
24/01:00am 13.1 13.7 13.1 100 0.0 NE 2 4 1 2 - - 17.6
24/12:30am 13.0 13.6 13.0 100 0.0 NNE 2 6 1 3 - - 17.6
24/12:00am 13.0 12.8 13.0 100 0.0 NNW 6 7 3 4 - - 17.6
 
Date/Time
EST
Temp
°C
App
Temp
°C
Dew
Point
Rel
Hum
%
Delta-T
°C
Wind Press
QNH
hPa
Press
MSL
hPa
Rain
since 9 am
mm
Dir
 
Spd
km/h
Gust
km/h
Spd
kts
Gust
kts
23/11:30pm 13.0 12.8 13.0 100 0.0 NNW 6 9 3 5 - - 17.6
23/11:00pm 13.0 13.2 13.0 100 0.0 NNE 4 6 2 3 - - 17.4
23/10:30pm 13.1 14.1 13.1 100 0.0 CALM 0 0 0 0 - - 17.4
23/10:00pm 13.2 14.2 13.2 100 0.0 CALM 0 0 0 0 - - 17.4
23/09:30pm 13.3 14.3 13.3 100 0.0 CALM 0 0 0 0 - - 17.2
23/09:00pm 13.3 14.3 13.3 100 0.0 CALM 0 0 0 0 - - 17.0
23/08:30pm 13.4 14.5 13.4 100 0.0 CALM 0 4 0 2 - - 17.0
23/08:00pm 13.3 14.0 13.3 100 0.0 E 2 7 1 4 - - 16.8
23/07:30pm 13.3 13.6 13.3 100 0.0 ESE 4 7 2 4 - - 16.6
23/07:00pm 13.3 14.0 13.3 100 0.0 ESE 2 7 1 4 - - 16.4
23/06:30pm 13.4 14.1 13.4 100 0.0 ESE 2 7 1 4 - - 16.2
23/06:00pm 13.4 13.7 13.4 100 0.0 SE 4 7 2 4 - - 15.8
23/05:30pm 13.5 13.8 13.5 100 0.0 SSE 4 6 2 3 - - 15.4
23/05:00pm 13.6 14.0 13.6 100 0.0 SE 4 9 2 5 - - 15.0
23/04:30pm 13.7 14.1 13.7 100 0.0 SE 4 7 2 4 - - 14.6
23/04:00pm 13.8 13.9 13.8 100 0.0 SE 6 9 3 5 - - 14.4
23/03:30pm 13.9 14.4 13.9 100 0.0 SE 4 6 2 3 - - 13.4
23/03:00pm 14.0 14.1 14.0 100 0.0 SE 6 9 3 5 - - 12.4
23/02:30pm 14.3 14.9 14.3 100 0.0 SE 4 9 2 5 - - 11.8
23/02:00pm 14.0 14.5 14.0 100 0.0 SSE 4 7 2 4 - - 11.4
23/01:30pm 13.9 14.8 13.9 100 0.0 SE 2 9 1 5 - - 10.4
23/01:00pm 13.9 14.8 13.9 100 0.0 S 2 4 1 2 - - 9.8
23/12:30pm 13.6 14.4 13.6 100 0.0 S 2 4 1 2 - - 8.6
23/12:00pm 13.8 14.6 13.8 100 0.0 S 2 4 1 2 - - 7.8
23/11:30am 13.6 14.7 13.6 100 0.0 CALM 0 0 0 0 - - 6.6
23/11:00am 13.0 13.6 13.0 100 0.0 WSW 2 6 1 3 - - 5.4
23/10:30am 12.8 13.3 12.8 100 0.0 SW 2 4 1 2 - - 4.4
23/10:00am 12.5 12.9 12.5 100 0.0 W 2 6 1 3 - - 2.8
23/09:30am 12.3 12.3 12.3 100 0.0 W 4 6 2 3 - - 1.4
23/09:00am 12.2 12.1 12.2 100 0.0 WSW 4 6 2 3 - - 34.2
23/08:30am 12.0 11.9 12.0 100 0.0 WSW 4 7 2 4 - - 33.6
23/08:00am 11.7 11.1 11.7 100 0.0 WSW 6 7 3 4 - - 32.6
23/07:30am 11.5 10.6 11.5 100 0.0 WSW 7 13 4 7 - - 31.8
23/07:00am 11.5 10.8 11.5 100 0.0 WSW 6 9 3 5 - - 30.8
23/06:30am 11.5 10.8 11.5 100 0.0 SW 6 13 3 7 - - 29.8
23/06:00am 11.5 10.8 11.5 100 0.0 SW 6 9 3 5 - - 29.0
23/05:30am 11.5 10.8 11.5 100 0.0 WSW 6 11 3 6 - - 28.0
23/05:00am 11.5 10.8 11.5 100 0.0 WSW 6 11 3 6 - - 26.6
23/04:30am 11.5 10.8 11.5 100 0.0 SW 6 11 3 6 - - 25.2
23/04:00am 11.5 11.2 11.5 100 0.0 SSW 4 7 2 4 - - 24.0
23/03:30am 11.4 11.1 11.4 100 0.0 SSW 4 11 2 6 - - 22.8
23/03:00am 11.4 11.1 11.4 100 0.0 SSW 4 6 2 3 - - 21.4
23/02:30am 11.4 11.5 11.4 100 0.0 S 2 6 1 3 - - 20.0
23/02:00am 11.4 11.5 11.4 100 0.0 S 2 4 1 2 - - 19.0
23/01:30am 11.3 11.3 11.3 100 0.0 S 2 6 1 3 - - 18.0
23/01:00am 11.4 11.5 11.4 100 0.0 SSW 2 4 1 2 - - 16.6
23/12:30am 11.4 11.1 11.4 100 0.0 S 4 6 2 3 - - 15.0
23/12:00am 11.4 11.1 11.4 100 0.0 SSE 4 6 2 3 - - 14.0
 
Date/Time
EST
Temp
°C
App
Temp
°C
Dew
Point
Rel
Hum
%
Delta-T
°C
Wind Press
QNH
hPa
Press
MSL
hPa
Rain
since 9 am
mm
Dir
 
Spd
km/h
Gust
km/h
Spd
kts
Gust
kts
22/11:30pm 11.4 11.1 11.4 100 0.0 SSE 4 9 2 5 - - 13.2
22/11:00pm 11.2 10.4 11.2 100 0.0 SSE 6 11 3 6 - - 12.8
22/10:30pm 11.4 11.1 11.4 100 0.0 SSE 4 9 2 5 - - 12.0
22/10:00pm 11.4 10.1 11.4 100 0.0 SSE 9 17 5 9 - - 11.2
22/09:30pm 11.6 11.0 11.6 100 0.0 SSE 6 13 3 7 - - 10.4
22/09:00pm 11.7 11.5 11.7 100 0.0 SSE 4 9 2 5 - - 10.0
22/08:30pm 11.6 11.3 11.6 100 0.0 SSE 4 6 2 3 - - 9.8
22/08:00pm 11.7 11.5 11.7 100 0.0 SE 4 6 2 3 - - 9.8
22/07:30pm 11.7 11.1 11.7 100 0.0 SSE 6 9 3 5 - - 9.6
22/07:00pm 11.8 11.2 11.8 100 0.0 SSE 6 13 3 7 - - 9.6

Other Formats:

Comma delimited format used in spreadsheet applications
http://www.bom.gov.au/fwo/IDV60801/IDV60801.95913.axf

JavaScript Object Notation format (JSON) in row-major order
http://www.bom.gov.au/fwo/IDV60801/IDV60801.95913.json